createdAt,value
2022-08-24T00:01:55.565Z,52.51
2022-08-24T00:04:25.742Z,53.01
2022-08-24T00:06:53.989Z,53.04
2022-08-24T00:09:22.227Z,53.41
2022-08-24T00:11:50.205Z,53.46
2022-08-24T00:14:19.177Z,53.79
2022-08-24T00:16:47.559Z,53.91
2022-08-24T00:19:16.277Z,53.72
2022-08-24T00:21:45.695Z,53.55
2022-08-24T00:24:14.833Z,53.99
2022-08-24T00:26:42.818Z,54.35
2022-08-24T00:29:11.152Z,54.52
2022-08-24T00:31:39.149Z,54.45
2022-08-24T00:34:07.204Z,54.43
2022-08-24T00:36:36.300Z,54.68
2022-08-24T00:39:06.870Z,54.41
2022-08-24T00:41:35.862Z,54.37
2022-08-24T00:44:06.312Z,54.43
2022-08-24T00:46:43.668Z,54.13
2022-08-24T00:49:19.375Z,54.51
2022-08-24T00:51:55.648Z,54.92
2022-08-24T00:54:28.100Z,54.92
2022-08-24T00:57:00.211Z,55.04
2022-08-24T00:59:32.611Z,54.81
2022-08-24T01:02:14.982Z,54.97
2022-08-24T01:04:49.067Z,54.73
2022-08-24T01:07:17.431Z,54.71
2022-08-24T01:09:47.455Z,54.59
2022-08-24T01:12:16.746Z,54.37
2022-08-24T01:14:45.498Z,54.42
2022-08-24T01:17:36.219Z,54.16
2022-08-24T01:20:09.786Z,54.78
2022-08-24T01:22:54.835Z,56.33
2022-08-24T01:25:27.463Z,55.74
2022-08-24T01:28:00.299Z,55.72
2022-08-24T01:30:36.428Z,55.71
2022-08-24T01:33:07.270Z,56.14
2022-08-24T01:35:36.677Z,56.68
2022-08-24T01:38:09.278Z,57.06
2022-08-24T01:40:42.143Z,57.51
2022-08-24T01:43:12.578Z,57.12
2022-08-24T01:45:41.480Z,57.36
2022-08-24T01:48:09.554Z,57.70
2022-08-24T01:50:38.453Z,57.47
2022-08-24T01:53:09.016Z,57.53
2022-08-24T01:55:38.477Z,57.87
2022-08-24T01:58:07.321Z,58.45
2022-08-24T02:00:37.654Z,59.08
2022-08-24T02:03:06.579Z,59.99
2022-08-24T02:05:35.228Z,59.81
2022-08-24T02:08:03.471Z,59.64
2022-08-24T02:10:32.548Z,60.12
2022-08-24T02:13:02.862Z,59.70
2022-08-24T02:15:34.769Z,59.57
2022-08-24T02:18:04.939Z,59.61
2022-08-24T02:20:33.351Z,59.47
2022-08-24T02:23:01.598Z,59.68
2022-08-24T02:25:30.773Z,59.65
2022-08-24T02:27:59.628Z,59.59
2022-08-24T02:30:30.082Z,60.56
2022-08-24T02:32:59.211Z,60.27
2022-08-24T02:35:27.391Z,60.90
2022-08-24T02:37:55.462Z,61.08
2022-08-24T02:40:24.397Z,61.47
2022-08-24T02:42:52.914Z,61.21
2022-08-24T02:45:21.516Z,60.92
2022-08-24T02:47:51.008Z,60.80
2022-08-24T02:50:20.591Z,60.70
2022-08-24T02:52:48.812Z,60.69
2022-08-24T02:55:19.911Z,60.45
2022-08-24T02:57:51.947Z,60.45
2022-08-24T03:00:22.489Z,60.38
2022-08-24T03:02:56.132Z,60.72
2022-08-24T03:05:26.087Z,60.84
2022-08-24T03:07:54.562Z,61.12
2022-08-24T03:10:23.386Z,60.99
2022-08-24T03:12:52.083Z,61.44
2022-08-24T03:15:22.621Z,61.97
2022-08-24T03:17:51.416Z,62.59
2022-08-24T03:20:23.122Z,62.29
2022-08-24T03:22:51.938Z,61.75
2022-08-24T03:25:24.542Z,61.84
2022-08-24T03:27:53.541Z,60.96
2022-08-24T03:30:23.517Z,61.07
2022-08-24T03:32:52.644Z,61.76
2022-08-24T03:35:22.913Z,61.04
2022-08-24T03:37:50.933Z,61.58
2022-08-24T03:40:23.194Z,62.47
2022-08-24T03:42:56.388Z,62.82
2022-08-24T03:45:24.660Z,63.08
2022-08-24T03:47:53.331Z,62.53
2022-08-24T03:50:24.384Z,61.95
2022-08-24T03:52:53.479Z,61.99
2022-08-24T03:55:21.866Z,62.44
2022-08-24T03:57:50.207Z,62.42
2022-08-24T04:00:18.573Z,62.35
2022-08-24T04:02:56.571Z,62.48
2022-08-24T04:05:27.984Z,62.58
2022-08-24T04:08:06.028Z,62.32
2022-08-24T04:10:36.497Z,61.84
2022-08-24T04:13:04.700Z,61.84
2022-08-24T04:15:33.731Z,62.26
2022-08-24T04:18:03.813Z,63.23
2022-08-24T04:20:33.513Z,63.53
2022-08-24T04:23:01.482Z,62.93
2022-08-24T04:25:29.467Z,63.04
2022-08-24T04:27:58.351Z,63.76
2022-08-24T04:30:26.321Z,63.93
2022-08-24T04:33:11.292Z,63.98
2022-08-24T04:35:42.504Z,65.03
2022-08-24T04:38:11.352Z,64.81
2022-08-24T04:40:46.914Z,65.35
2022-08-24T04:43:19.903Z,65.99
2022-08-24T04:45:50.589Z,66.54
2022-08-24T04:48:19.461Z,66.68
2022-08-24T04:50:49.455Z,66.38
2022-08-24T04:53:18.121Z,66.03
2022-08-24T04:55:51.205Z,66.42
2022-08-24T04:58:20.316Z,66.65
2022-08-24T05:00:49.004Z,67.06
2022-08-24T05:03:17.150Z,67.25
2022-08-24T05:05:50.543Z,67.71
2022-08-24T05:08:20.947Z,67.88
2022-08-24T05:10:50.598Z,67.31
2022-08-24T05:13:19.835Z,67.16
2022-08-24T05:15:49.632Z,67.21
2022-08-24T05:18:18.592Z,66.65
2022-08-24T05:20:48.953Z,66.51
2022-08-24T05:23:19.880Z,66.61
2022-08-24T05:25:48.252Z,67.38
2022-08-24T05:28:16.258Z,67.55
2022-08-24T05:30:44.645Z,67.01
2022-08-24T05:33:12.753Z,66.23
2022-08-24T05:35:43.830Z,66.34
2022-08-24T05:38:14.155Z,66.15
2022-08-24T05:40:43.262Z,66.28
2022-08-24T05:43:11.723Z,66.85
2022-08-24T05:45:42.827Z,67.31
2022-08-24T05:48:12.014Z,67.34
2022-08-24T05:51:03.343Z,67.52
2022-08-24T05:53:36.994Z,66.94
2022-08-24T05:56:07.916Z,67.51
2022-08-24T05:58:38.386Z,67.21
2022-08-24T06:01:08.700Z,66.35
2022-08-24T06:03:36.999Z,65.72
2022-08-24T06:06:08.641Z,65.71
2022-08-24T06:08:41.687Z,66.14
2022-08-24T06:11:11.428Z,65.45
2022-08-24T06:13:39.650Z,65.28
2022-08-24T06:16:24.836Z,65.00
2022-08-24T06:18:55.339Z,64.46
2022-08-24T06:21:28.260Z,64.25
2022-08-24T06:24:00.334Z,64.29
2022-08-24T06:26:50.354Z,64.29
2022-08-24T06:29:19.626Z,64.16
2022-08-24T06:31:54.839Z,63.85
2022-08-24T06:34:26.352Z,63.80
2022-08-24T06:36:55.419Z,63.76
2022-08-24T06:39:26.995Z,63.97
2022-08-24T06:41:57.088Z,63.85
2022-08-24T06:44:32.747Z,61.17
2022-08-24T06:47:08.653Z,61.00
2022-08-24T06:49:38.012Z,61.72
2022-08-24T06:52:06.314Z,62.47
2022-08-24T06:54:35.634Z,62.57
2022-08-24T06:57:05.593Z,62.36
2022-08-24T06:59:34.792Z,61.73
2022-08-24T07:02:02.935Z,61.86
2022-08-24T07:04:31.223Z,61.25
2022-08-24T07:07:22.136Z,60.58
2022-08-24T07:09:51.523Z,60.27
2022-08-24T07:12:19.519Z,59.68
2022-08-24T07:14:48.311Z,59.68
2022-08-24T07:17:16.521Z,59.67
2022-08-24T07:19:46.201Z,59.79
2022-08-24T07:22:22.656Z,60.55
2022-08-24T07:24:52.074Z,60.08
2022-08-24T07:27:21.116Z,59.77
2022-08-24T07:30:04.635Z,59.77
2022-08-24T07:32:38.408Z,59.79
2022-08-24T07:35:07.940Z,58.12
2022-08-24T07:37:41.437Z,58.18
2022-08-24T07:40:14.313Z,58.62
2022-08-24T07:42:42.417Z,58.46
2022-08-24T07:45:11.295Z,58.32
2022-08-24T07:47:46.109Z,57.82
2022-08-24T07:50:38.423Z,57.89
2022-08-24T07:53:09.725Z,57.41
2022-08-24T07:55:46.213Z,56.33
2022-08-24T07:58:15.107Z,56.11
2022-08-24T08:00:47.644Z,56.27
2022-08-24T08:03:15.974Z,56.88
2022-08-24T08:05:45.571Z,56.51
2022-08-24T08:08:13.668Z,56.54
2022-08-24T08:10:43.720Z,56.44
2022-08-24T08:13:11.941Z,55.75
2022-08-24T08:15:39.982Z,55.67
2022-08-24T08:18:11.262Z,55.23
2022-08-24T08:20:42.475Z,54.83
2022-08-24T08:23:29.754Z,55.37
2022-08-24T08:26:17.491Z,55.34
2022-08-24T08:29:04.598Z,54.93
2022-08-24T08:31:34.676Z,54.43
2022-08-24T08:34:04.979Z,54.52
2022-08-24T08:36:33.806Z,53.88
2022-08-24T08:39:02.323Z,54.20
2022-08-24T08:42:05.679Z,54.17
2022-08-24T08:45:03.803Z,54.53
2022-08-24T08:48:11.756Z,53.03
2022-08-24T08:51:14.055Z,53.72
2022-08-24T08:54:11.805Z,53.62
2022-08-24T08:56:53.217Z,53.78
2022-08-24T08:59:39.168Z,52.51
2022-08-24T09:02:23.966Z,53.59
2022-08-24T09:05:28.635Z,53.42
2022-08-24T09:08:07.002Z,53.38
2022-08-24T09:10:54.417Z,52.97
2022-08-24T09:13:54.465Z,52.77
2022-08-24T09:17:02.926Z,51.74
2022-08-24T09:19:44.653Z,52.54
2022-08-24T09:22:15.213Z,52.59
2022-08-24T09:25:26.476Z,52.09
2022-08-24T09:28:22.291Z,52.00
2022-08-24T09:31:14.437Z,51.97
2022-08-24T09:33:46.907Z,51.28
2022-08-24T09:36:21.490Z,52.17
2022-08-24T09:39:05.965Z,50.91
2022-08-24T09:42:20.368Z,51.52
2022-08-24T09:45:21.463Z,51.86
2022-08-24T09:48:15.799Z,50.18
2022-08-24T09:51:15.704Z,51.30
2022-08-24T09:54:21.861Z,51.34
2022-08-24T09:57:12.226Z,50.58
2022-08-24T10:00:10.339Z,50.24
2022-08-24T10:03:08.406Z,49.81
2022-08-24T10:05:54.608Z,49.55
2022-08-24T10:08:35.918Z,50.09
2022-08-24T10:11:11.810Z,50.12
2022-08-24T10:13:50.835Z,49.86
2022-08-24T10:16:38.881Z,50.30
2022-08-24T10:19:31.887Z,49.56
2022-08-24T10:22:09.484Z,49.47
2022-08-24T10:25:01.889Z,49.54
2022-08-24T10:27:45.867Z,49.16
2022-08-24T10:30:46.872Z,49.18
2022-08-24T10:33:21.337Z,49.23
2022-08-24T10:36:26.402Z,49.03
2022-08-24T10:39:29.851Z,48.12
2022-08-24T10:42:43.328Z,48.10
2022-08-24T10:45:28.821Z,48.58
2022-08-24T10:48:26.634Z,48.83
2022-08-24T10:51:00.310Z,48.55
2022-08-24T10:53:30.802Z,48.35
2022-08-24T10:56:08.425Z,48.35
2022-08-24T10:58:52.139Z,48.51
2022-08-24T11:01:26.672Z,48.03
2022-08-24T11:04:02.623Z,48.20
2022-08-24T11:06:33.038Z,48.19
2022-08-24T11:09:06.156Z,48.22
2022-08-24T11:11:40.597Z,47.76
2022-08-24T11:14:23.857Z,47.83
2022-08-24T11:16:57.024Z,48.10
2022-08-24T11:19:33.997Z,47.74
2022-08-24T11:22:04.976Z,48.29
2022-08-24T11:24:43.453Z,47.88
2022-08-24T11:27:30.538Z,46.86
2022-08-24T11:30:02.618Z,46.81
2022-08-24T11:32:37.798Z,46.80
2022-08-24T11:35:09.508Z,46.52
2022-08-24T11:37:39.677Z,46.57
2022-08-24T11:40:09.683Z,46.69
2022-08-24T11:42:53.303Z,46.45
2022-08-24T11:45:29.886Z,46.79
2022-08-24T11:48:05.873Z,46.61
2022-08-24T11:50:37.679Z,46.67
2022-08-24T11:53:13.071Z,46.77
2022-08-24T11:55:51.767Z,46.07
2022-08-24T11:58:38.691Z,46.67
2022-08-24T12:01:15.079Z,46.32
2022-08-24T12:03:56.690Z,46.42
2022-08-24T12:06:36.953Z,45.83
2022-08-24T12:09:19.099Z,46.17
2022-08-24T12:11:57.843Z,45.91
2022-08-24T12:14:38.120Z,45.85
2022-08-24T12:17:11.329Z,45.72
2022-08-24T12:19:48.349Z,45.41
2022-08-24T12:22:19.172Z,45.17
2022-08-24T12:24:49.563Z,45.39
2022-08-24T12:27:22.073Z,45.79
2022-08-24T12:30:00.611Z,45.79
2022-08-24T12:32:40.904Z,45.17
2022-08-24T12:35:16.893Z,45.55
2022-08-24T12:37:49.246Z,45.12
2022-08-24T12:40:25.337Z,44.74
2022-08-24T12:42:56.540Z,44.68
2022-08-24T12:45:26.865Z,44.62
2022-08-24T12:48:01.211Z,44.09
2022-08-24T12:50:38.969Z,44.69
2022-08-24T12:53:43.071Z,44.72
2022-08-24T12:56:28.084Z,44.05
2022-08-24T12:59:04.332Z,44.50
2022-08-24T13:01:36.888Z,44.34
2022-08-24T13:04:10.252Z,44.91
2022-08-24T13:06:42.459Z,44.13
2022-08-24T13:09:16.365Z,44.25
2022-08-24T13:11:44.515Z,43.29
2022-08-24T13:14:21.684Z,42.39
2022-08-24T13:17:08.553Z,43.05
2022-08-24T13:19:40.047Z,42.45
2022-08-24T13:22:47.144Z,42.60
2022-08-24T13:25:53.871Z,43.13
2022-08-24T13:28:45.307Z,43.07
2022-08-24T13:31:42.603Z,41.85
2022-08-24T13:34:46.672Z,41.69
2022-08-24T13:37:18.909Z,42.01
2022-08-24T13:40:06.589Z,42.65
2022-08-24T13:43:04.129Z,40.87
2022-08-24T13:45:36.449Z,40.99
2022-08-24T13:48:28.676Z,41.07
2022-08-24T13:51:21.791Z,41.68
2022-08-24T13:54:05.433Z,41.79
2022-08-24T13:57:02.111Z,40.72
2022-08-24T13:59:50.237Z,40.99
2022-08-24T14:02:30.175Z,41.46
2022-08-24T14:05:10.489Z,40.91
2022-08-24T14:07:55.314Z,40.93
2022-08-24T14:10:39.664Z,41.71
2022-08-24T14:13:26.674Z,41.39
2022-08-24T14:16:14.528Z,41.19
2022-08-24T14:18:59.024Z,39.64
2022-08-24T14:21:39.885Z,39.86
2022-08-24T14:24:14.495Z,40.00
2022-08-24T14:27:09.672Z,39.27
2022-08-24T14:30:15.684Z,40.32
2022-08-24T14:33:04.314Z,38.73
2022-08-24T14:35:37.273Z,39.49
2022-08-24T14:38:31.566Z,39.10
2022-08-24T14:41:26.547Z,39.11
2022-08-24T14:44:08.877Z,39.01
2022-08-24T14:46:45.633Z,39.37
2022-08-24T14:49:21.456Z,37.83
2022-08-24T14:52:11.063Z,38.96
2022-08-24T14:54:54.108Z,38.65
2022-08-24T14:57:40.697Z,37.74
2022-08-24T15:00:13.824Z,38.04
2022-08-24T15:03:02.735Z,38.72
2022-08-24T15:05:40.842Z,38.13
2022-08-24T15:08:11.631Z,37.44
2022-08-24T15:10:47.466Z,37.60
2022-08-24T15:13:28.729Z,37.49
2022-08-24T15:16:02.056Z,38.04
2022-08-24T15:18:37.977Z,36.44
2022-08-24T15:21:27.637Z,35.78
2022-08-24T15:24:10.234Z,36.01
2022-08-24T15:26:53.244Z,35.91
2022-08-24T15:29:24.684Z,35.72
2022-08-24T15:32:04.470Z,36.30
2022-08-24T15:34:45.552Z,34.22
2022-08-24T15:37:15.911Z,34.44
2022-08-24T15:39:44.046Z,34.22
2022-08-24T15:42:15.302Z,34.64
2022-08-24T15:44:48.112Z,34.85
2022-08-24T15:47:30.248Z,34.07
2022-08-24T15:50:00.802Z,34.75
2022-08-24T15:52:49.455Z,33.46
2022-08-24T15:55:40.622Z,32.33
2022-08-24T15:58:35.075Z,33.28
2022-08-24T16:01:39.751Z,32.70
2022-08-24T16:04:10.991Z,33.52
2022-08-24T16:06:45.129Z,33.68
2022-08-24T16:09:35.698Z,34.56
2022-08-24T16:12:07.823Z,34.46
2022-08-24T16:14:38.855Z,34.20
2022-08-24T16:17:27.720Z,34.47
2022-08-24T16:19:58.520Z,34.55
2022-08-24T16:22:33.478Z,34.30
2022-08-24T16:25:23.858Z,35.36
2022-08-24T16:28:07.841Z,34.96
2022-08-24T16:30:44.506Z,35.47
2022-08-24T16:33:43.329Z,35.50
2022-08-24T16:36:15.213Z,35.71
2022-08-24T16:38:47.960Z,35.64
2022-08-24T16:41:18.683Z,34.96
2022-08-24T16:43:48.202Z,35.69
2022-08-24T16:46:20.736Z,36.40
2022-08-24T16:48:50.189Z,35.34
2022-08-24T16:51:18.231Z,35.57
2022-08-24T16:53:46.197Z,36.07
2022-08-24T16:56:16.653Z,36.08
2022-08-24T16:58:47.165Z,36.60
2022-08-24T17:01:15.692Z,36.42
2022-08-24T17:03:43.831Z,36.58
2022-08-24T17:06:14.763Z,36.23
2022-08-24T17:08:42.903Z,36.03
2022-08-24T17:11:10.842Z,36.42
2022-08-24T17:13:49.342Z,36.70
2022-08-24T17:16:18.879Z,37.13
2022-08-24T17:18:47.310Z,36.96
2022-08-24T17:21:16.746Z,36.73
2022-08-24T17:23:48.381Z,36.59
2022-08-24T17:26:21.025Z,36.75
2022-08-24T17:28:52.004Z,36.91
2022-08-24T17:31:20.250Z,36.92
2022-08-24T17:33:48.466Z,36.58
2022-08-24T17:36:21.208Z,36.43
2022-08-24T17:38:55.705Z,37.19
2022-08-24T17:41:25.652Z,36.80
2022-08-24T17:43:54.487Z,37.17
2022-08-24T17:46:23.062Z,36.72
2022-08-24T17:48:51.641Z,36.98
2022-08-24T17:51:21.225Z,36.63
2022-08-24T17:53:49.283Z,37.10
2022-08-24T17:56:18.169Z,37.53
2022-08-24T17:59:04.158Z,37.83
2022-08-24T18:01:32.639Z,37.75
2022-08-24T18:04:00.708Z,37.04
2022-08-24T18:06:30.252Z,37.68
2022-08-24T18:09:03.933Z,37.09
2022-08-24T18:11:32.107Z,38.45
2022-08-24T18:14:01.575Z,38.77
2022-08-24T18:16:29.730Z,38.47
2022-08-24T18:18:57.971Z,38.41
2022-08-24T18:21:25.944Z,38.48
2022-08-24T18:23:55.330Z,39.33
2022-08-24T18:26:28.049Z,39.30
2022-08-24T18:28:58.255Z,39.43
2022-08-24T18:31:28.929Z,40.06
2022-08-24T18:33:57.009Z,40.22
2022-08-24T18:36:24.936Z,40.53
2022-08-24T18:38:53.275Z,40.46
2022-08-24T18:41:27.256Z,41.25
2022-08-24T18:43:55.497Z,41.79
2022-08-24T18:46:23.890Z,41.77
2022-08-24T18:48:51.860Z,42.49
2022-08-24T18:51:21.360Z,42.34
2022-08-24T18:53:49.579Z,42.67
2022-08-24T18:56:17.990Z,43.05
2022-08-24T18:58:47.346Z,42.88
2022-08-24T19:01:15.450Z,43.01
2022-08-24T19:03:43.816Z,43.16
2022-08-24T19:06:11.873Z,43.58
2022-08-24T19:08:40.078Z,43.72
2022-08-24T19:11:08.882Z,43.82
2022-08-24T19:13:38.795Z,44.03
2022-08-24T19:16:08.732Z,44.28
2022-08-24T19:18:36.739Z,44.29
2022-08-24T19:21:04.745Z,44.07
2022-08-24T19:23:36.479Z,44.26
2022-08-24T19:26:05.282Z,44.41
2022-08-24T19:28:33.284Z,44.34
2022-08-24T19:31:04.254Z,44.31
2022-08-24T19:33:37.928Z,44.13
2022-08-24T19:36:06.642Z,44.19
2022-08-24T19:38:34.889Z,44.13
2022-08-24T19:41:11.183Z,43.99
2022-08-24T19:44:00.875Z,44.04
2022-08-24T19:46:28.134Z,43.96
2022-08-24T19:48:57.533Z,43.74
2022-08-24T19:51:26.700Z,43.74
2022-08-24T19:53:54.910Z,43.44
2022-08-24T19:56:24.009Z,43.44
2022-08-24T19:58:59.679Z,43.41
2022-08-24T20:01:29.910Z,43.50
2022-08-24T20:03:59.350Z,43.50
2022-08-24T20:06:28.325Z,43.47
2022-08-24T20:08:56.695Z,44.36
2022-08-24T20:11:25.503Z,45.32
2022-08-24T20:13:54.485Z,46.10
2022-08-24T20:16:24.565Z,46.82
2022-08-24T20:18:52.714Z,47.01
2022-08-24T20:21:27.094Z,47.24
2022-08-24T20:23:57.545Z,47.24
2022-08-24T20:26:25.986Z,47.43
2022-08-24T20:28:55.433Z,47.98
2022-08-24T20:31:28.081Z,48.40
2022-08-24T20:33:57.795Z,49.00
2022-08-24T20:36:30.376Z,49.44
2022-08-24T20:39:01.426Z,49.32
2022-08-24T20:41:29.895Z,49.07
2022-08-24T20:43:58.251Z,48.84
2022-08-24T20:46:27.915Z,49.72
2022-08-24T20:48:57.251Z,49.42
2022-08-24T20:51:26.996Z,49.75
2022-08-24T20:53:55.925Z,50.02
2022-08-24T20:56:30.815Z,50.16
2022-08-24T20:59:00.083Z,49.99
2022-08-24T21:01:28.055Z,49.93
2022-08-24T21:03:58.513Z,50.48
2022-08-24T21:06:30.646Z,49.89
2022-08-24T21:08:58.708Z,50.15
2022-08-24T21:11:26.666Z,50.14
2022-08-24T21:13:54.680Z,50.55
2022-08-24T21:16:22.760Z,50.80
2022-08-24T21:18:50.790Z,51.53
2022-08-24T21:21:19.041Z,51.55
2022-08-24T21:23:48.472Z,51.11
2022-08-24T21:26:20.029Z,51.07
2022-08-24T21:28:49.606Z,50.88
2022-08-24T21:31:18.151Z,51.30
2022-08-24T21:34:03.822Z,50.84
2022-08-24T21:36:32.224Z,51.11
2022-08-24T21:39:02.355Z,51.47
2022-08-24T21:41:30.386Z,50.93
2022-08-24T21:43:58.849Z,51.14
2022-08-24T21:46:31.445Z,51.87
2022-08-24T21:49:00.417Z,51.28
2022-08-24T21:51:28.739Z,52.09
2022-08-24T21:53:59.506Z,51.93
2022-08-24T21:56:33.224Z,52.31
2022-08-24T21:59:02.803Z,51.82
2022-08-24T22:01:30.840Z,52.40
2022-08-24T22:03:59.333Z,52.67
2022-08-24T22:06:31.204Z,53.03
2022-08-24T22:08:59.423Z,53.44
2022-08-24T22:11:29.703Z,53.66
2022-08-24T22:13:58.303Z,53.30
2022-08-24T22:16:27.093Z,54.02
2022-08-24T22:18:55.491Z,54.18
2022-08-24T22:21:26.440Z,54.07
2022-08-24T22:23:56.677Z,54.33
2022-08-24T22:26:25.936Z,54.30
2022-08-24T22:28:56.759Z,54.47
2022-08-24T22:31:27.779Z,54.39
2022-08-24T22:33:57.674Z,54.43
2022-08-24T22:36:26.466Z,53.89
2022-08-24T22:38:56.206Z,54.01
2022-08-24T22:41:25.109Z,54.45
2022-08-24T22:44:14.126Z,54.64
2022-08-24T22:46:42.221Z,54.76
2022-08-24T22:49:11.418Z,55.32
2022-08-24T22:51:40.612Z,55.06
2022-08-24T22:54:09.540Z,55.41
2022-08-24T22:56:40.866Z,55.92
2022-08-24T22:59:14.452Z,55.69
2022-08-24T23:01:44.400Z,55.71
2022-08-24T23:04:15.250Z,56.22
2022-08-24T23:06:43.835Z,56.04
2022-08-24T23:09:12.285Z,55.93
2022-08-24T23:11:40.627Z,56.38
2022-08-24T23:14:12.419Z,56.77
2022-08-24T23:16:44.666Z,56.77
2022-08-24T23:19:30.207Z,56.76
2022-08-24T23:21:58.259Z,56.43
2022-08-24T23:24:26.212Z,56.72
2022-08-24T23:26:54.245Z,56.31
2022-08-24T23:29:23.607Z,56.83
2022-08-24T23:31:53.626Z,56.77
2022-08-24T23:34:23.385Z,56.67
2022-08-24T23:36:52.239Z,57.53
2022-08-24T23:39:21.504Z,56.80
2022-08-24T23:41:50.934Z,57.16
2022-08-24T23:44:21.813Z,57.09
2022-08-24T23:46:51.653Z,57.08
2022-08-24T23:49:21.615Z,56.69
2022-08-24T23:51:50.409Z,56.83
2022-08-24T23:54:21.499Z,57.06
2022-08-24T23:56:50.381Z,57.08
2022-08-24T23:59:21.677Z,56.67
